createdAt,value
2022-09-02T00:00:59.912Z,64.45
2022-09-02T00:06:02.289Z,64.51
2022-09-02T00:11:06.141Z,64.44
2022-09-02T00:16:07.999Z,64.66
2022-09-02T00:21:11.994Z,64.95
2022-09-02T00:26:14.433Z,64.63
2022-09-02T00:31:16.982Z,63.54
2022-09-02T00:36:18.753Z,63.16
2022-09-02T00:41:25.230Z,62.65
2022-09-02T00:46:30.609Z,62.91
2022-09-02T00:51:39.057Z,63.12
2022-09-02T00:56:43.585Z,62.89
2022-09-02T01:01:45.276Z,62.82
2022-09-02T01:06:47.825Z,62.92
2022-09-02T01:11:55.396Z,63.15
2022-09-02T01:17:00.394Z,62.43
2022-09-02T01:22:02.443Z,62.01
2022-09-02T01:27:04.208Z,62.44
2022-09-02T01:32:05.939Z,62.00
2022-09-02T01:37:07.463Z,62.65
2022-09-02T01:42:09.449Z,63.13
2022-09-02T01:47:12.992Z,63.20
2022-09-02T01:52:15.018Z,63.29
2022-09-02T01:57:16.552Z,63.15
2022-09-02T02:02:19.193Z,63.23
2022-09-02T02:07:22.649Z,63.07
2022-09-02T02:12:24.159Z,62.85
2022-09-02T02:17:25.657Z,63.46
2022-09-02T02:22:27.271Z,63.70
2022-09-02T02:27:28.784Z,63.86
2022-09-02T02:32:32.433Z,64.08
2022-09-02T02:37:33.989Z,64.35
2022-09-02T02:42:35.563Z,64.69
2022-09-02T02:47:42.652Z,65.06
2022-09-02T02:52:44.511Z,65.25
2022-09-02T02:57:46.340Z,65.65
2022-09-02T03:02:48.254Z,66.09
2022-09-02T03:07:49.847Z,66.28
2022-09-02T03:12:51.933Z,66.72
2022-09-02T03:17:54.357Z,67.04
2022-09-02T03:22:59.064Z,67.59
2022-09-02T03:28:02.504Z,67.82
2022-09-02T03:33:05.801Z,67.63
2022-09-02T03:38:07.988Z,67.52
2022-09-02T03:43:09.711Z,67.52
2022-09-02T03:48:12.940Z,67.80
2022-09-02T03:53:18.337Z,67.80
2022-09-02T03:58:23.126Z,67.85
2022-09-02T04:03:24.701Z,68.34
2022-09-02T04:08:26.403Z,68.59
2022-09-02T04:13:27.910Z,68.60
2022-09-02T04:18:30.346Z,68.06
2022-09-02T04:23:32.942Z,68.18
2022-09-02T04:28:34.882Z,68.48
2022-09-02T04:33:37.122Z,68.68
2022-09-02T04:38:39.103Z,68.89
2022-09-02T04:43:41.357Z,69.50
2022-09-02T04:48:43.925Z,70.24
2022-09-02T04:53:46.869Z,70.52
2022-09-02T04:58:51.528Z,70.60
2022-09-02T05:03:54.047Z,71.12
2022-09-02T05:08:59.308Z,71.52
2022-09-02T05:14:04.655Z,71.55
2022-09-02T05:19:10.179Z,72.14
2022-09-02T05:24:11.737Z,72.12
2022-09-02T05:29:14.309Z,71.94
2022-09-02T05:34:16.862Z,72.03
2022-09-02T05:39:18.357Z,71.74
2022-09-02T05:44:20.035Z,71.95
2022-09-02T05:49:22.603Z,71.91
2022-09-02T05:54:30.507Z,71.95
2022-09-02T05:59:36.898Z,71.89
2022-09-02T06:04:40.352Z,72.26
2022-09-02T06:09:44.574Z,71.95
2022-09-02T06:14:47.810Z,72.36
2022-09-02T06:19:49.316Z,72.50
2022-09-02T06:24:54.351Z,72.17
2022-09-02T06:29:55.870Z,71.98
2022-09-02T06:34:57.424Z,71.57
2022-09-02T06:39:58.910Z,71.73
2022-09-02T06:45:00.416Z,71.32
2022-09-02T06:50:02.703Z,71.21
2022-09-02T06:55:04.826Z,71.07
2022-09-02T07:00:09.335Z,70.90
2022-09-02T07:05:11.181Z,70.90
2022-09-02T07:10:14.376Z,70.60
2022-09-02T07:15:15.874Z,70.98
2022-09-02T07:20:17.677Z,70.66
2022-09-02T07:25:19.431Z,71.14
2022-09-02T07:30:21.309Z,70.60
2022-09-02T07:35:23.009Z,70.38
2022-09-02T07:40:24.731Z,69.99
2022-09-02T07:45:26.380Z,70.20
2022-09-02T07:50:28.066Z,69.41
2022-09-02T07:55:31.114Z,69.65
2022-09-02T08:00:32.817Z,69.25
2022-09-02T08:05:35.519Z,68.30
2022-09-02T08:10:38.051Z,68.12
2022-09-02T08:15:39.720Z,67.68
2022-09-02T08:20:41.234Z,66.87
2022-09-02T08:25:43.187Z,66.26
2022-09-02T08:30:46.200Z,65.85
2022-09-02T08:35:48.311Z,66.44
2022-09-02T08:40:51.485Z,65.10
2022-09-02T08:45:54.710Z,64.62
2022-09-02T08:51:03.300Z,64.70
2022-09-02T08:56:08.832Z,64.79
2022-09-02T09:01:13.052Z,63.23
2022-09-02T09:06:23.617Z,62.51
2022-09-02T09:11:38.656Z,62.62
2022-09-02T09:16:42.197Z,62.60
2022-09-02T09:21:44.464Z,62.10
2022-09-02T09:26:47.333Z,61.69
2022-09-02T09:31:56.083Z,60.98
2022-09-02T09:36:58.665Z,61.67
2022-09-02T09:42:13.367Z,61.72
2022-09-02T09:47:26.511Z,60.83
2022-09-02T09:52:30.130Z,59.79
2022-09-02T09:57:35.873Z,59.36
2022-09-02T10:02:47.186Z,58.98
2022-09-02T10:07:56.318Z,58.15
2022-09-02T10:13:16.798Z,57.68
2022-09-02T10:18:36.713Z,57.01
2022-09-02T10:23:46.640Z,57.32
2022-09-02T10:29:07.131Z,57.24
2022-09-02T10:34:26.758Z,57.76
2022-09-02T10:40:05.559Z,57.03
2022-09-02T10:45:24.188Z,56.79
2022-09-02T10:50:46.810Z,55.74
2022-09-02T10:55:58.518Z,55.50
2022-09-02T11:01:02.339Z,56.36
2022-09-02T11:06:31.687Z,54.72
2022-09-02T11:12:25.473Z,55.48
2022-09-02T11:17:43.473Z,56.38
2022-09-02T11:23:17.841Z,55.53
2022-09-02T11:28:41.050Z,54.23
2022-09-02T11:33:47.126Z,54.39
2022-09-02T11:39:00.008Z,54.41
2022-09-02T11:44:36.431Z,54.58
2022-09-02T11:49:56.674Z,54.48
2022-09-02T11:55:16.766Z,55.60
2022-09-02T12:00:32.852Z,55.62
2022-09-02T12:05:35.224Z,55.70
2022-09-02T12:10:43.551Z,55.33
2022-09-02T12:15:45.515Z,55.81
2022-09-02T12:20:51.102Z,55.67
2022-09-02T12:25:58.025Z,54.32
2022-09-02T12:31:02.126Z,53.34
2022-09-02T12:36:05.537Z,52.06
2022-09-02T12:41:08.720Z,51.57
2022-09-02T12:46:21.647Z,50.76
2022-09-02T12:51:59.788Z,50.71
2022-09-02T12:57:01.605Z,49.64
2022-09-02T13:02:28.088Z,49.70
2022-09-02T13:07:50.302Z,50.06
2022-09-02T13:13:41.547Z,50.35
2022-09-02T13:19:20.602Z,50.05
2022-09-02T13:24:55.671Z,49.19
2022-09-02T13:30:06.322Z,49.00
2022-09-02T13:35:21.479Z,48.88
2022-09-02T13:40:33.716Z,48.94
2022-09-02T13:45:35.856Z,48.75
2022-09-02T13:50:42.284Z,47.70
2022-09-02T13:55:54.423Z,47.89
2022-09-02T14:01:01.965Z,47.62
2022-09-02T14:06:08.007Z,47.84
2022-09-02T14:11:15.641Z,46.84
2022-09-02T14:16:29.593Z,45.46
2022-09-02T14:21:32.474Z,44.54
2022-09-02T14:26:37.505Z,44.40
2022-09-02T14:31:39.062Z,44.14
2022-09-02T14:36:40.597Z,43.60
2022-09-02T14:41:53.565Z,43.60
2022-09-02T14:46:58.903Z,43.63
2022-09-02T14:52:05.003Z,43.81
2022-09-02T14:57:33.362Z,43.91
2022-09-02T15:02:36.178Z,43.40
2022-09-02T15:07:38.994Z,42.77
2022-09-02T15:12:53.683Z,43.08
2022-09-02T15:17:56.522Z,41.88
2022-09-02T15:22:58.359Z,41.25
2022-09-02T15:28:01.005Z,40.58
2022-09-02T15:33:14.649Z,41.54
2022-09-02T15:38:19.269Z,43.24
2022-09-02T15:43:21.355Z,43.68
2022-09-02T15:48:22.923Z,43.76
2022-09-02T15:53:24.551Z,43.04
2022-09-02T15:58:26.114Z,42.67
2022-09-02T16:03:27.599Z,43.09
2022-09-02T16:08:29.173Z,41.94
2022-09-02T16:13:30.696Z,42.59
2022-09-02T16:18:33.775Z,42.70
2022-09-02T16:23:35.942Z,41.99
2022-09-02T16:28:38.923Z,42.01
2022-09-02T16:33:42.352Z,43.16
2022-09-02T16:38:43.865Z,44.36
2022-09-02T16:43:45.343Z,44.32
2022-09-02T16:48:46.985Z,43.88
2022-09-02T16:53:53.366Z,44.53
2022-09-02T16:58:54.938Z,44.71
2022-09-02T17:03:56.453Z,45.98
2022-09-02T17:08:58.244Z,46.97
2022-09-02T17:14:18.077Z,47.66
2022-09-02T17:19:26.178Z,48.05
2022-09-02T17:24:31.643Z,48.23
2022-09-02T17:29:49.899Z,48.36
2022-09-02T17:34:51.852Z,46.70
2022-09-02T17:39:53.528Z,45.90
2022-09-02T17:44:55.109Z,45.65
2022-09-02T17:49:56.618Z,45.92
2022-09-02T17:54:58.505Z,45.21
2022-09-02T18:00:10.980Z,45.85
2022-09-02T18:05:45.508Z,46.71
2022-09-02T18:10:57.229Z,47.41
2022-09-02T18:16:28.382Z,47.52
2022-09-02T18:21:56.059Z,48.68
2022-09-02T18:27:21.622Z,50.04
2022-09-02T18:32:50.794Z,51.23
2022-09-02T18:38:07.209Z,51.56
2022-09-02T18:43:47.375Z,51.54
2022-09-02T18:48:53.409Z,50.65
2022-09-02T18:54:00.482Z,50.33
2022-09-02T18:59:10.755Z,49.82
2022-09-02T19:04:12.297Z,49.05
2022-09-02T19:09:16.092Z,48.57
2022-09-02T19:14:29.001Z,48.07
2022-09-02T19:19:30.581Z,48.07
2022-09-02T19:24:37.361Z,48.60
2022-09-02T19:29:43.403Z,49.24
2022-09-02T19:34:45.750Z,49.28
2022-09-02T19:39:52.213Z,49.80
2022-09-02T19:44:53.989Z,49.93
2022-09-02T19:49:55.489Z,48.53
2022-09-02T19:54:57.682Z,47.92
2022-09-02T20:00:01.849Z,48.16
2022-09-02T20:05:05.024Z,48.53
2022-09-02T20:10:07.477Z,48.38
2022-09-02T20:15:09.781Z,48.56
2022-09-02T20:20:23.805Z,49.56
2022-09-02T20:25:52.861Z,50.35
2022-09-02T20:31:09.051Z,51.02
2022-09-02T20:36:29.856Z,50.76
2022-09-02T20:41:55.168Z,49.54
2022-09-02T20:47:03.829Z,48.93
2022-09-02T20:52:21.583Z,49.38
2022-09-02T20:57:35.047Z,49.32
2022-09-02T21:02:44.080Z,49.86
2022-09-02T21:07:51.175Z,50.42
2022-09-02T21:12:54.664Z,50.46
2022-09-02T21:18:11.519Z,50.82
2022-09-02T21:23:27.314Z,51.51
2022-09-02T21:28:43.849Z,51.23
2022-09-02T21:33:45.637Z,51.19
2022-09-02T21:38:47.206Z,51.36
2022-09-02T21:44:12.708Z,52.44
2022-09-02T21:49:33.103Z,52.87
2022-09-02T21:54:55.196Z,53.06
2022-09-02T22:00:07.389Z,53.93
2022-09-02T22:05:39.053Z,54.86
2022-09-02T22:10:55.410Z,55.32
2022-09-02T22:16:17.537Z,55.70
2022-09-02T22:21:48.364Z,55.98
2022-09-02T22:26:54.576Z,56.67
2022-09-02T22:31:59.429Z,57.20
2022-09-02T22:37:07.877Z,57.17
2022-09-02T22:42:20.083Z,57.69
2022-09-02T22:47:42.952Z,57.52
2022-09-02T22:52:57.252Z,57.68
2022-09-02T22:58:09.239Z,58.55
2022-09-02T23:03:24.081Z,58.30
2022-09-02T23:08:25.805Z,58.86
2022-09-02T23:13:46.378Z,58.34
2022-09-02T23:19:12.385Z,59.09
2022-09-02T23:24:54.194Z,58.78
2022-09-02T23:29:55.955Z,58.48
2022-09-02T23:35:13.900Z,58.00
2022-09-02T23:40:42.981Z,58.01
2022-09-02T23:45:46.418Z,58.71
2022-09-02T23:51:14.803Z,59.54
2022-09-02T23:56:46.423Z,60.42
